Albertville, Wisconsin
Current Conditions -  °F | °C
As of 8:55 AM on Sunday 21 Dec 2014 (Local Time) from KLUM Reporting Station
Haze Haze  
Wind Chill: 24°   Ceiling: 500
Heat Index: 32°   Visibility: 1mi
Dew Point: 32°   Wind: 9mph
Humidity: 99%   Direction: 110°ESE
Pressure: 29.96"   Gusts: NA
Location:  45.0099°N, 91.7075°W
Report Text: KLUM 211455Z AUTO 11008KT 1SM BR OVC005 00/00 A2996 RMK AO2 T00001002
Loading
Personal Weather Stations






























Interactive Weather Map New forecast layout! Learn more

10-Day Weather Forecast

Advertisements
Track Severe Weather on mobile